createdAt,value
2022-11-21T11:13:44.436Z,8.13
2022-11-21T11:16:17.321Z,10.80
2022-11-21T11:18:54.373Z,8.45
2022-11-21T11:21:23.597Z,5.43
2022-11-21T11:23:52.097Z,5.28
2022-11-21T11:26:27.750Z,6.20
2022-11-21T11:29:07.821Z,4.80
2022-11-21T11:32:04.466Z,5.43
2022-11-21T11:34:54.299Z,4.70
2022-11-21T11:37:29.823Z,4.65
2022-11-21T11:40:23.769Z,4.03
2022-11-21T11:43:27.356Z,5.00
2022-11-21T11:46:50.760Z,5.70
2022-11-21T11:49:58.741Z,5.22
2022-11-21T11:52:33.946Z,5.40
2022-11-21T11:55:06.774Z,5.65
2022-11-21T11:57:37.429Z,5.90
2022-11-21T12:00:17.293Z,5.18
2022-11-21T12:03:11.891Z,5.25
2022-11-21T12:05:54.880Z,6.15
2022-11-21T12:08:44.331Z,5.50
2022-11-21T12:11:53.313Z,5.90
2022-11-21T12:15:00.097Z,8.25
2022-11-21T12:17:39.187Z,6.90
2022-11-21T12:20:15.773Z,7.13
2022-11-21T12:22:44.003Z,6.72
2022-11-21T12:25:12.960Z,7.47
2022-11-21T12:27:41.757Z,7.72
2022-11-21T12:30:21.610Z,6.55
2022-11-21T12:33:24.396Z,7.85
2022-11-21T12:35:53.680Z,6.60
2022-11-21T12:38:22.886Z,7.43
2022-11-21T12:41:24.883Z,7.30
2022-11-21T12:44:30.189Z,8.45
2022-11-21T12:47:02.950Z,7.03
2022-11-21T12:50:27.126Z,7.10
2022-11-21T12:53:45.034Z,8.55
2022-11-21T12:56:28.651Z,7.72
2022-11-21T12:58:56.916Z,11.00
2022-11-21T13:01:38.951Z,11.18
2022-11-21T13:04:30.558Z,11.55
2022-11-21T13:06:58.560Z,11.30
2022-11-21T13:09:28.116Z,12.90
2022-11-21T13:12:06.327Z,10.57
2022-11-21T13:15:00.842Z,9.80
2022-11-21T13:17:56.139Z,10.23
2022-11-21T13:20:35.449Z,8.60
2022-11-21T13:23:07.138Z,9.23
2022-11-21T13:25:40.427Z,8.00
2022-11-21T13:28:19.179Z,9.27
2022-11-21T13:30:56.463Z,8.55
2022-11-21T13:33:35.361Z,11.88
2022-11-21T13:36:30.299Z,13.27
2022-11-21T13:38:56.956Z,9.45
2022-11-21T13:41:54.051Z,8.55
2022-11-21T13:44:32.569Z,8.55
2022-11-21T13:47:00.032Z,8.93
2022-11-21T13:49:31.702Z,9.90
2022-11-21T13:52:02.100Z,8.27
2022-11-21T13:54:56.687Z,8.63
2022-11-21T13:57:38.155Z,8.82
2022-11-21T14:00:28.724Z,10.02
2022-11-21T14:03:22.641Z,9.65
2022-11-21T14:06:16.495Z,11.73
2022-11-21T14:08:43.996Z,14.70
2022-11-21T14:11:22.405Z,12.02
2022-11-21T14:13:50.395Z,12.40
2022-11-21T14:16:36.828Z,12.50
2022-11-21T14:19:04.995Z,12.77
2022-11-21T14:21:34.144Z,17.90
2022-11-21T14:24:06.560Z,15.82
2022-11-21T14:26:40.388Z,20.63
2022-11-21T14:29:22.795Z,20.77
2022-11-21T14:31:50.689Z,19.38
2022-11-21T14:34:31.803Z,18.35
2022-11-21T14:37:05.277Z,21.17
2022-11-21T14:39:38.701Z,20.27
2022-11-21T14:42:11.258Z,26.10
2022-11-21T14:44:38.175Z,21.45
2022-11-21T14:47:25.196Z,17.52
2022-11-21T14:49:55.539Z,18.75
2022-11-21T14:52:29.166Z,16.37
2022-11-21T14:55:29.719Z,17.77
2022-11-21T14:57:47.540Z,16.45
2022-11-21T15:00:58.509Z,15.85
2022-11-21T15:03:20.372Z,21.25
2022-11-21T15:06:04.039Z,18.23
2022-11-21T15:11:23.599Z,18.98
2022-11-21T15:14:15.903Z,20.30
2022-11-21T15:16:48.267Z,18.00
2022-11-21T15:19:26.261Z,18.55
2022-11-21T15:21:56.546Z,19.70
2022-11-21T15:24:42.721Z,19.45
2022-11-21T15:27:28.096Z,19.35
2022-11-21T15:30:09.840Z,18.33
2022-11-21T15:33:04.334Z,19.55
2022-11-21T15:35:51.322Z,19.15
2022-11-21T15:38:40.515Z,23.13
2022-11-21T15:41:09.943Z,25.02
2022-11-21T15:46:14.452Z,23.95
2022-11-21T15:48:41.961Z,23.48
2022-11-21T15:51:12.118Z,22.35
2022-11-21T15:53:39.582Z,22.77
2022-11-21T15:56:06.648Z,25.58
2022-11-21T15:58:33.491Z,24.65
2022-11-21T16:01:00.486Z,21.30
2022-11-21T16:03:27.490Z,24.63
2022-11-21T16:05:54.113Z,24.27
2022-11-21T16:08:20.688Z,26.90
2022-11-21T16:10:47.289Z,25.13
2022-11-21T16:13:14.158Z,26.77
2022-11-21T16:15:41.134Z,28.80
2022-11-21T16:18:08.544Z,33.75
2022-11-21T16:20:35.135Z,26.10
2022-11-21T16:23:01.749Z,29.67
2022-11-21T16:25:28.343Z,32.63
2022-11-21T16:27:56.809Z,31.55
2022-11-21T16:30:23.442Z,39.27
2022-11-21T16:32:51.311Z,30.17
2022-11-21T16:35:17.875Z,30.10
2022-11-21T16:37:44.516Z,31.38
2022-11-21T16:40:11.406Z,37.85
2022-11-21T16:42:38.105Z,33.55
2022-11-21T16:45:05.451Z,42.28
2022-11-21T16:47:32.048Z,39.95
2022-11-21T16:49:58.693Z,32.50
2022-11-21T16:52:26.343Z,41.40
2022-11-21T16:54:52.919Z,37.13
2022-11-21T16:57:19.515Z,27.48
2022-11-21T16:59:47.147Z,31.02
2022-11-21T17:02:13.904Z,32.08
2022-11-21T17:04:40.554Z,30.75
2022-11-21T17:07:07.164Z,32.28
